Terminal Aerodrome Forecast
Issued by NWS

Home | Current Version | Previous Version | Text Only | Print | Product List | Glossary On
Versions: 1 2 3 4 5 6 7 8 9 10 11 12 13 14 15 16 17 18
000
FTUS46 KSTO 271100
TAFRBL
TAF
KRBL 271139Z 2712/2812 VRB05KT P6SM BKN150
      TEMPO 2713/2717 5SM BR
     FM272100 16006KT P6SM BKN050 OVC120
     FM280300 VRB03KT P6SM BKN050=

USA.gov is the U.S. government's official web portal to all federal, state and local government web resources and services.